PBFO2: Black Fork Below Big Creek Nr Page, OK
Data processed at Thu 06Apr2023 04:25 GMT
All information presented herein is the property of the government of the United States of America and may be revised or deleted at any time without prior notice.
Dissemination of this information without the expressed written consent of the Public Affairs Office, Tulsa District U.S. Army Corps of Engineers is strictly prohibited.
These data are gathered electronically and, as presented, have not undergone any form of quality control. These data are not guaranteed to be valid or correct.
Go to home page.
Go to station list.
Downstream station:
Previous Day
Next Day
Current Day
SHEF ID: PBFO2 Black Fork below Big Creek nr Pa
STATION TYPE:
PRECIP STAGE RIV-FLOW
in ft cfs
Ccp-Rev Ccp-Rev Ccp-Rev
(US/Central)
04/05 00:00 0.00 5.68 147
04/05 01:00 0.00 5.68 147
04/05 02:00 0.00 5.67 145
04/05 03:00 0.00 5.67 145
04/05 04:00 0.00 5.66 144
04/05 05:00 0.00 5.66 144
04/05 06:00 0.00 5.66 144
04/05 07:00 0.00 5.66 144
04/05 08:00 0.02 5.66 144
04/05 09:00 0.41 5.73 157
04/05 10:00 0.01 5.76 163
04/05 11:00 0.01 5.77 165
04/05 12:00 0.00 5.78 167
04/05 13:00 0.00 5.81 173
04/05 14:00 0.01 5.88 188
04/05 15:00 0.00 5.99 213
04/05 16:00 0.01 6.13 247
04/05 17:00 0.00 6.22 271
04/05 18:00 0.00 6.24 276
04/05 19:00 0.01 6.23 273
04/05 20:00 0.00 6.19 263
04/05 21:00 0.00 6.15 252
04/05 22:00 0.01 6.11 242
04/05 23:00 0.00 6.08 234